sensor_id;sensor_type;location;lat;lon;timestamp;pressure;altitude;pressure_sealevel;temperature;humidity
20444;BME280;10381;53.730;10.010;2023-08-07T00:00:09;98456.84;;;13.92;100.00
20444;BME280;10381;53.730;10.010;2023-08-07T00:04:09;98477.31;;;13.92;100.00
20444;BME280;10381;53.730;10.010;2023-08-07T00:08:10;98503.72;;;13.93;100.00
20444;BME280;10381;53.730;10.010;2023-08-07T00:12:10;98520.72;;;13.92;100.00
20444;BME280;10381;53.730;10.010;2023-08-07T00:16:10;98527.91;;;13.85;100.00
20444;BME280;10381;53.730;10.010;2023-08-07T00:20:10;98536.94;;;13.84;100.00
20444;BME280;10381;53.730;10.010;2023-08-07T00:24:11;98558.66;;;13.81;100.00
20444;BME280;10381;53.730;10.010;2023-08-07T00:28:11;98583.84;;;13.78;100.00
20444;BME280;10381;53.730;10.010;2023-08-07T00:32:11;98585.47;;;13.79;100.00
20444;BME280;10381;53.730;10.010;2023-08-07T00:36:11;98602.50;;;13.72;100.00
20444;BME280;10381;53.730;10.010;2023-08-07T00:40:12;98600.84;;;13.77;100.00
20444;BME280;10381;53.730;10.010;2023-08-07T00:44:12;98613.75;;;13.74;100.00
20444;BME280;10381;53.730;10.010;2023-08-07T00:48:13;98613.31;;;13.77;100.00
20444;BME280;10381;53.730;10.010;2023-08-07T00:52:15;98607.22;;;13.70;100.00
20444;BME280;10381;53.730;10.010;2023-08-07T00:56:15;98600.03;;;13.63;100.00
20444;BME280;10381;53.730;10.010;2023-08-07T01:00:16;98596.59;;;13.56;100.00
20444;BME280;10381;53.730;10.010;2023-08-07T01:04:17;98575.97;;;13.45;100.00
20444;BME280;10381;53.730;10.010;2023-08-07T01:08:17;98553.28;;;13.36;100.00
20444;BME280;10381;53.730;10.010;2023-08-07T01:12:28;98541.19;;;13.27;100.00
20444;BME280;10381;53.730;10.010;2023-08-07T01:20:40;98502.16;;;13.20;100.00
20444;BME280;10381;53.730;10.010;2023-08-07T01:24:45;98487.84;;;13.15;100.00
20444;BME280;10381;53.730;10.010;2023-08-07T01:28:57;98468.22;;;13.16;100.00
20444;BME280;10381;53.730;10.010;2023-08-07T01:33:10;98450.41;;;13.16;100.00
20444;BME280;10381;53.730;10.010;2023-08-07T01:37:13;98445.09;;;13.16;100.00
20444;BME280;10381;53.730;10.010;2023-08-07T01:41:13;98450.63;;;13.15;100.00
20444;BME280;10381;53.730;10.010;2023-08-07T01:45:14;98445.28;;;13.21;100.00
20444;BME280;10381;53.730;10.010;2023-08-07T01:49:14;98467.41;;;13.09;100.00
20444;BME280;10381;53.730;10.010;2023-08-07T01:53:14;98469.22;;;13.21;100.00
20444;BME280;10381;53.730;10.010;2023-08-07T01:57:14;98487.25;;;13.06;100.00
20444;BME280;10381;53.730;10.010;2023-08-07T02:01:15;98500.50;;;13.13;100.00
20444;BME280;10381;53.730;10.010;2023-08-07T02:05:15;98522.81;;;13.18;100.00
20444;BME280;10381;53.730;10.010;2023-08-07T02:09:16;98546.75;;;13.18;100.00
20444;BME280;10381;53.730;10.010;2023-08-07T02:13:16;98568.81;;;13.19;100.00
20444;BME280;10381;53.730;10.010;2023-08-07T02:17:16;98584.56;;;13.20;100.00
20444;BME280;10381;53.730;10.010;2023-08-07T02:21:17;98599.28;;;13.10;100.00
20444;BME280;10381;53.730;10.010;2023-08-07T02:25:17;98599.91;;;13.05;100.00
20444;BME280;10381;53.730;10.010;2023-08-07T02:29:17;98599.31;;;12.90;100.00
20444;BME280;10381;53.730;10.010;2023-08-07T02:33:17;98585.38;;;12.81;100.00
20444;BME280;10381;53.730;10.010;2023-08-07T02:37:18;98562.06;;;12.70;100.00
20444;BME280;10381;53.730;10.010;2023-08-07T02:41:18;98548.59;;;12.65;100.00
20444;BME280;10381;53.730;10.010;2023-08-07T02:45:19;98533.50;;;12.65;100.00
20444;BME280;10381;53.730;10.010;2023-08-07T02:49:19;98523.03;;;12.50;100.00
20444;BME280;10381;53.730;10.010;2023-08-07T02:53:19;98502.22;;;12.87;100.00
20444;BME280;10381;53.730;10.010;2023-08-07T02:57:20;98523.47;;;12.74;100.00
20444;BME280;10381;53.730;10.010;2023-08-07T03:01:20;98523.84;;;12.91;100.00
20444;BME280;10381;53.730;10.010;2023-08-07T03:05:21;98523.47;;;12.81;100.00
20444;BME280;10381;53.730;10.010;2023-08-07T03:09:21;98517.72;;;12.97;100.00
20444;BME280;10381;53.730;10.010;2023-08-07T03:13:23;98508.94;;;12.96;100.00
20444;BME280;10381;53.730;10.010;2023-08-07T03:17:23;98513.22;;;13.04;100.00
20444;BME280;10381;53.730;10.010;2023-08-07T03:21:24;98515.44;;;13.14;100.00
20444;BME280;10381;53.730;10.010;2023-08-07T03:25:24;98522.81;;;13.18;100.00
20444;BME280;10381;53.730;10.010;2023-08-07T03:29:24;98515.63;;;13.26;100.00
20444;BME280;10381;53.730;10.010;2023-08-07T03:33:25;98523.81;;;13.31;100.00
20444;BME280;10381;53.730;10.010;2023-08-07T03:37:25;98509.50;;;13.32;100.00
20444;BME280;10381;53.730;10.010;2023-08-07T03:41:26;98506.22;;;13.30;100.00
20444;BME280;10381;53.730;10.010;2023-08-07T03:45:26;98505.00;;;13.26;100.00
20444;BME280;10381;53.730;10.010;2023-08-07T03:49:27;98491.31;;;13.29;100.00
20444;BME280;10381;53.730;10.010;2023-08-07T03:53:27;98487.59;;;13.30;100.00
20444;BME280;10381;53.730;10.010;2023-08-07T03:57:27;98489.69;;;13.28;100.00
20444;BME280;10381;53.730;10.010;2023-08-07T04:01:30;98497.66;;;13.28;100.00
20444;BME280;10381;53.730;10.010;2023-08-07T04:05:33;98479.84;;;13.21;100.00
20444;BME280;10381;53.730;10.010;2023-08-07T04:09:33;98466.34;;;13.30;100.00
20444;BME280;10381;53.730;10.010;2023-08-07T04:13:34;98456.50;;;13.37;100.00
20444;BME280;10381;53.730;10.010;2023-08-07T04:17:34;98439.09;;;13.41;100.00
20444;BME280;10381;53.730;10.010;2023-08-07T04:21:34;98418.84;;;13.40;100.00
20444;BME280;10381;53.730;10.010;2023-08-07T04:25:35;98397.97;;;13.43;100.00
20444;BME280;10381;53.730;10.010;2023-08-07T04:29:35;98378.53;;;13.43;100.00
20444;BME280;10381;53.730;10.010;2023-08-07T04:33:35;98351.47;;;13.53;100.00
20444;BME280;10381;53.730;10.010;2023-08-07T04:37:36;98344.22;;;13.67;100.00
20444;BME280;10381;53.730;10.010;2023-08-07T04:41:36;98339.66;;;13.74;100.00
20444;BME280;10381;53.730;10.010;2023-08-07T04:45:36;98324.22;;;13.82;100.00
20444;BME280;10381;53.730;10.010;2023-08-07T04:49:38;98314.75;;;13.93;100.00
20444;BME280;10381;53.730;10.010;2023-08-07T04:53:38;98323.03;;;14.03;100.00
20444;BME280;10381;53.730;10.010;2023-08-07T04:57:39;98324.75;;;14.16;100.00
20444;BME280;10381;53.730;10.010;2023-08-07T05:01:39;98344.09;;;14.30;100.00
20444;BME280;10381;53.730;10.010;2023-08-07T05:05:39;98356.56;;;14.36;100.00
20444;BME280;10381;53.730;10.010;2023-08-07T05:09:40;98370.03;;;14.41;100.00
20444;BME280;10381;53.730;10.010;2023-08-07T05:13:40;98388.16;;;14.58;100.00
20444;BME280;10381;53.730;10.010;2023-08-07T05:17:40;98405.44;;;14.67;100.00
20444;BME280;10381;53.730;10.010;2023-08-07T05:21:40;98436.56;;;14.73;100.00
20444;BME280;10381;53.730;10.010;2023-08-07T05:25:41;98471.97;;;14.80;100.00
20444;BME280;10381;53.730;10.010;2023-08-07T05:29:41;98522.88;;;14.97;100.00
20444;BME280;10381;53.730;10.010;2023-08-07T05:33:44;98568.00;;;14.99;100.00
20444;BME280;10381;53.730;10.010;2023-08-07T05:37:45;98618.84;;;14.97;100.00
20444;BME280;10381;53.730;10.010;2023-08-07T05:41:45;98653.25;;;15.05;100.00
20444;BME280;10381;53.730;10.010;2023-08-07T05:45:45;98687.88;;;15.12;100.00
20444;BME280;10381;53.730;10.010;2023-08-07T05:49:46;98711.66;;;15.13;100.00
20444;BME280;10381;53.730;10.010;2023-08-07T05:53:46;98750.16;;;15.24;100.00
20444;BME280;10381;53.730;10.010;2023-08-07T05:57:46;98781.56;;;15.22;100.00
20444;BME280;10381;53.730;10.010;2023-08-07T06:01:47;98819.31;;;15.26;100.00
20444;BME280;10381;53.730;10.010;2023-08-07T06:05:47;98880.22;;;15.29;100.00
20444;BME280;10381;53.730;10.010;2023-08-07T06:09:47;98897.66;;;15.31;100.00
20444;BME280;10381;53.730;10.010;2023-08-07T06:13:48;98936.88;;;15.31;100.00
20444;BME280;10381;53.730;10.010;2023-08-07T06:17:49;98985.06;;;15.43;100.00
20444;BME280;10381;53.730;10.010;2023-08-07T06:21:51;99029.78;;;15.54;100.00
20444;BME280;10381;53.730;10.010;2023-08-07T06:25:51;99066.91;;;15.62;100.00
20444;BME280;10381;53.730;10.010;2023-08-07T06:29:51;99114.97;;;15.62;100.00
20444;BME280;10381;53.730;10.010;2023-08-07T06:33:52;99130.16;;;15.48;100.00
20444;BME280;10381;53.730;10.010;2023-08-07T06:37:52;99134.06;;;15.59;100.00
20444;BME280;10381;53.730;10.010;2023-08-07T06:41:52;99146.78;;;15.70;100.00
20444;BME280;10381;53.730;10.010;2023-08-07T06:45:54;99164.41;;;15.85;100.00
20444;BME280;10381;53.730;10.010;2023-08-07T06:49:55;99189.28;;;15.65;100.00
20444;BME280;10381;53.730;10.010;2023-08-07T06:53:55;99201.38;;;15.68;100.00
20444;BME280;10381;53.730;10.010;2023-08-07T06:57:55;99230.38;;;15.77;100.00
20444;BME280;10381;53.730;10.010;2023-08-07T07:01:55;99272.88;;;15.66;100.00
20444;BME280;10381;53.730;10.010;2023-08-07T07:05:56;99271.84;;;15.87;100.00
20444;BME280;10381;53.730;10.010;2023-08-07T07:09:56;99293.84;;;15.95;100.00
20444;BME280;10381;53.730;10.010;2023-08-07T07:14:01;99310.25;;;15.99;100.00
20444;BME280;10381;53.730;10.010;2023-08-07T07:18:01;99340.06;;;15.96;100.00
20444;BME280;10381;53.730;10.010;2023-08-07T07:22:02;99354.63;;;16.27;100.00
20444;BME280;10381;53.730;10.010;2023-08-07T07:26:02;99376.63;;;16.15;100.00
20444;BME280;10381;53.730;10.010;2023-08-07T07:30:03;99401.72;;;16.14;100.00
20444;BME280;10381;53.730;10.010;2023-08-07T07:34:03;99415.44;;;15.85;100.00
20444;BME280;10381;53.730;10.010;2023-08-07T07:38:03;99389.16;;;16.15;100.00
20444;BME280;10381;53.730;10.010;2023-08-07T07:42:04;99404.78;;;16.38;100.00
20444;BME280;10381;53.730;10.010;2023-08-07T07:46:04;99439.31;;;16.46;100.00
20444;BME280;10381;53.730;10.010;2023-08-07T07:50:07;99472.22;;;16.80;100.00
20444;BME280;10381;53.730;10.010;2023-08-07T07:54:08;99518.28;;;16.95;100.00
20444;BME280;10381;53.730;10.010;2023-08-07T07:58:08;99559.81;;;16.78;100.00
20444;BME280;10381;53.730;10.010;2023-08-07T08:02:08;99585.63;;;16.11;100.00
20444;BME280;10381;53.730;10.010;2023-08-07T08:06:12;99540.22;;;15.63;100.00
20444;BME280;10381;53.730;10.010;2023-08-07T08:10:13;99487.88;;;15.62;100.00
20444;BME280;10381;53.730;10.010;2023-08-07T08:14:13;99459.44;;;15.95;100.00
20444;BME280;10381;53.730;10.010;2023-08-07T08:18:14;99471.78;;;16.03;100.00
20444;BME280;10381;53.730;10.010;2023-08-07T08:22:14;99484.75;;;16.46;100.00
20444;BME280;10381;53.730;10.010;2023-08-07T08:26:14;99487.44;;;16.26;100.00
20444;BME280;10381;53.730;10.010;2023-08-07T08:30:14;99473.38;;;15.84;100.00
20444;BME280;10381;53.730;10.010;2023-08-07T08:34:15;99470.91;;;15.89;100.00
20444;BME280;10381;53.730;10.010;2023-08-07T08:38:15;99507.59;;;15.67;100.00
20444;BME280;10381;53.730;10.010;2023-08-07T08:42:16;99441.13;;;15.18;100.00
20444;BME280;10381;53.730;10.010;2023-08-07T08:46:20;99359.75;;;14.94;100.00
20444;BME280;10381;53.730;10.010;2023-08-07T08:50:23;99333.56;;;15.17;100.00
20444;BME280;10381;53.730;10.010;2023-08-07T08:54:25;99376.69;;;15.21;100.00
20444;BME280;10381;53.730;10.010;2023-08-07T08:58:26;99357.63;;;15.44;100.00
20444;BME280;10381;53.730;10.010;2023-08-07T09:02:27;99363.84;;;15.64;100.00
20444;BME280;10381;53.730;10.010;2023-08-07T09:06:27;99366.13;;;16.21;100.00
20444;BME280;10381;53.730;10.010;2023-08-07T09:10:29;99410.53;;;15.95;100.00
20444;BME280;10381;53.730;10.010;2023-08-07T09:14:33;99397.19;;;16.08;100.00
20444;BME280;10381;53.730;10.010;2023-08-07T09:18:37;99432.94;;;16.01;100.00
20444;BME280;10381;53.730;10.010;2023-08-07T09:22:39;99450.78;;;15.32;100.00
20444;BME280;10381;53.730;10.010;2023-08-07T09:26:41;99282.63;;;14.16;100.00
20444;BME280;10381;53.730;10.010;2023-08-07T09:30:44;99172.09;;;13.57;100.00
20444;BME280;10381;53.730;10.010;2023-08-07T09:34:44;99086.59;;;13.67;100.00
20444;BME280;10381;53.730;10.010;2023-08-07T09:38:49;99025.88;;;13.90;100.00
20444;BME280;10381;53.730;10.010;2023-08-07T09:42:51;99017.56;;;14.33;100.00
20444;BME280;10381;53.730;10.010;2023-08-07T09:46:52;99024.53;;;15.14;100.00
20444;BME280;10381;53.730;10.010;2023-08-07T09:50:53;99101.97;;;15.92;100.00
20444;BME280;10381;53.730;10.010;2023-08-07T09:54:57;99308.63;;;15.85;100.00
20444;BME280;10381;53.730;10.010;2023-08-07T09:58:57;99401.31;;;15.97;100.00
20444;BME280;10381;53.730;10.010;2023-08-07T10:02:59;99532.41;;;16.09;100.00
20444;BME280;10381;53.730;10.010;2023-08-07T10:07:01;99624.81;;;16.45;100.00
20444;BME280;10381;53.730;10.010;2023-08-07T10:11:01;99693.00;;;16.82;100.00
20444;BME280;10381;53.730;10.010;2023-08-07T10:15:03;99699.59;;;17.60;100.00
20444;BME280;10381;53.730;10.010;2023-08-07T10:19:03;99754.34;;;17.04;100.00
20444;BME280;10381;53.730;10.010;2023-08-07T10:23:07;99793.09;;;17.21;100.00
20444;BME280;10381;53.730;10.010;2023-08-07T10:27:08;99842.78;;;17.64;100.00
20444;BME280;10381;53.730;10.010;2023-08-07T10:31:10;99877.88;;;17.14;100.00
20444;BME280;10381;53.730;10.010;2023-08-07T10:35:32;99916.50;;;16.92;100.00
20444;BME280;10381;53.730;10.010;2023-08-07T10:39:33;99914.19;;;17.30;100.00
20444;BME280;10381;53.730;10.010;2023-08-07T10:43:40;99896.19;;;16.69;100.00
20444;BME280;10381;53.730;10.010;2023-08-07T10:47:41;99800.31;;;16.25;100.00
20444;BME280;10381;53.730;10.010;2023-08-07T10:51:41;99809.28;;;17.00;100.00
20444;BME280;10381;53.730;10.010;2023-08-07T10:55:45;99878.44;;;17.64;100.00
20444;BME280;10381;53.730;10.010;2023-08-07T10:59:50;99939.88;;;17.18;100.00
20444;BME280;10381;53.730;10.010;2023-08-07T11:03:51;99935.66;;;16.95;100.00
20444;BME280;10381;53.730;10.010;2023-08-07T11:07:53;99913.50;;;17.08;100.00
20444;BME280;10381;53.730;10.010;2023-08-07T11:11:53;99921.69;;;17.00;100.00
20444;BME280;10381;53.730;10.010;2023-08-07T11:15:54;99946.09;;;16.55;100.00
20444;BME280;10381;53.730;10.010;2023-08-07T11:19:57;99876.44;;;15.43;100.00
20444;BME280;10381;53.730;10.010;2023-08-07T11:23:58;99817.72;;;15.86;100.00
20444;BME280;10381;53.730;10.010;2023-08-07T11:27:58;99845.09;;;16.92;100.00
20444;BME280;10381;53.730;10.010;2023-08-07T11:31:58;99927.22;;;17.46;100.00
20444;BME280;10381;53.730;10.010;2023-08-07T11:35:59;100053.78;;;16.92;100.00
20444;BME280;10381;53.730;10.010;2023-08-07T11:40:02;100040.69;;;16.54;100.00
20444;BME280;10381;53.730;10.010;2023-08-07T11:44:03;100013.97;;;17.11;100.00
20444;BME280;10381;53.730;10.010;2023-08-07T11:48:04;100009.97;;;16.93;100.00
20444;BME280;10381;53.730;10.010;2023-08-07T11:52:05;100018.75;;;17.22;100.00
20444;BME280;10381;53.730;10.010;2023-08-07T11:56:10;100086.97;;;16.76;100.00
20444;BME280;10381;53.730;10.010;2023-08-07T12:00:11;100078.38;;;17.37;100.00
20444;BME280;10381;53.730;10.010;2023-08-07T12:04:14;100102.97;;;16.70;100.00
20444;BME280;10381;53.730;10.010;2023-08-07T12:08:17;100050.38;;;16.34;100.00
20444;BME280;10381;53.730;10.010;2023-08-07T12:12:19;99964.88;;;17.38;100.00
20444;BME280;10381;53.730;10.010;2023-08-07T12:16:19;100016.19;;;17.42;100.00
20444;BME280;10381;53.730;10.010;2023-08-07T12:20:22;100055.69;;;17.05;100.00
20444;BME280;10381;53.730;10.010;2023-08-07T12:24:22;100055.16;;;16.81;100.00
20444;BME280;10381;53.730;10.010;2023-08-07T12:28:22;100033.63;;;16.04;100.00
20444;BME280;10381;53.730;10.010;2023-08-07T12:32:23;100028.56;;;15.58;100.00
20444;BME280;10381;53.730;10.010;2023-08-07T12:36:23;99923.19;;;15.02;100.00
20444;BME280;10381;53.730;10.010;2023-08-07T12:40:24;99895.19;;;15.86;100.00
20444;BME280;10381;53.730;10.010;2023-08-07T12:44:25;99983.56;;;15.91;100.00
20444;BME280;10381;53.730;10.010;2023-08-07T12:48:25;100008.84;;;16.31;100.00
20444;BME280;10381;53.730;10.010;2023-08-07T12:52:27;100003.53;;;17.29;100.00
20444;BME280;10381;53.730;10.010;2023-08-07T12:56:27;100060.16;;;16.91;100.00
20444;BME280;10381;53.730;10.010;2023-08-07T13:00:28;100090.41;;;16.92;100.00
20444;BME280;10381;53.730;10.010;2023-08-07T13:04:28;100105.38;;;16.65;100.00
20444;BME280;10381;53.730;10.010;2023-08-07T13:08:28;100106.25;;;17.21;100.00
20444;BME280;10381;53.730;10.010;2023-08-07T13:12:29;100129.09;;;17.17;100.00
20444;BME280;10381;53.730;10.010;2023-08-07T13:16:30;100133.59;;;17.45;100.00
20444;BME280;10381;53.730;10.010;2023-08-07T13:20:30;100142.13;;;16.77;100.00
20444;BME280;10381;53.730;10.010;2023-08-07T13:24:33;100144.19;;;16.39;100.00
20444;BME280;10381;53.730;10.010;2023-08-07T13:28:34;100101.44;;;16.39;100.00
20444;BME280;10381;53.730;10.010;2023-08-07T13:32:35;100103.16;;;16.47;100.00
20444;BME280;10381;53.730;10.010;2023-08-07T13:36:37;100108.09;;;16.50;100.00
20444;BME280;10381;53.730;10.010;2023-08-07T13:40:40;100113.56;;;16.20;100.00
20444;BME280;10381;53.730;10.010;2023-08-07T13:44:41;100149.59;;;16.24;100.00
20444;BME280;10381;53.730;10.010;2023-08-07T13:48:41;100160.69;;;15.91;100.00
20444;BME280;10381;53.730;10.010;2023-08-07T13:52:41;100167.88;;;15.61;100.00
20444;BME280;10381;53.730;10.010;2023-08-07T13:56:42;100115.75;;;14.60;100.00
20444;BME280;10381;53.730;10.010;2023-08-07T14:00:42;100021.56;;;14.67;100.00
20444;BME280;10381;53.730;10.010;2023-08-07T14:04:42;100002.09;;;14.97;100.00
20444;BME280;10381;53.730;10.010;2023-08-07T14:08:46;100006.19;;;15.44;100.00
20444;BME280;10381;53.730;10.010;2023-08-07T14:12:46;100080.59;;;16.56;100.00
20444;BME280;10381;53.730;10.010;2023-08-07T14:16:46;100160.63;;;17.22;100.00
20444;BME280;10381;53.730;10.010;2023-08-07T14:20:47;100246.66;;;16.97;100.00
20444;BME280;10381;53.730;10.010;2023-08-07T14:24:47;100311.47;;;17.14;100.00
20444;BME280;10381;53.730;10.010;2023-08-07T14:28:47;100426.66;;;17.57;100.00
20444;BME280;10381;53.730;10.010;2023-08-07T14:32:48;100504.97;;;18.39;100.00
20444;BME280;10381;53.730;10.010;2023-08-07T14:36:48;100444.94;;;18.12;100.00
20444;BME280;10381;53.730;10.010;2023-08-07T14:40:49;100400.91;;;18.27;100.00
20444;BME280;10381;53.730;10.010;2023-08-07T14:44:49;100391.69;;;17.08;100.00
20444;BME280;10381;53.730;10.010;2023-08-07T14:48:49;100437.19;;;16.78;100.00
20444;BME280;10381;53.730;10.010;2023-08-07T14:52:49;100481.81;;;16.48;100.00
20444;BME280;10381;53.730;10.010;2023-08-07T14:56:50;100523.38;;;16.12;100.00
20444;BME280;10381;53.730;10.010;2023-08-07T15:00:53;100555.03;;;16.24;100.00
20444;BME280;10381;53.730;10.010;2023-08-07T15:04:54;100545.97;;;15.79;100.00
20444;BME280;10381;53.730;10.010;2023-08-07T15:08:54;100527.31;;;15.62;100.00
20444;BME280;10381;53.730;10.010;2023-08-07T15:12:55;100098.97;;;15.27;100.00
20444;BME280;10381;53.730;10.010;2023-08-07T15:16:56;100166.88;;;15.77;100.00
20444;BME280;10381;53.730;10.010;2023-08-07T15:20:56;100252.88;;;15.87;100.00
20444;BME280;10381;53.730;10.010;2023-08-07T15:24:57;100284.78;;;16.48;100.00
20444;BME280;10381;53.730;10.010;2023-08-07T15:28:57;100288.91;;;16.66;100.00
20444;BME280;10381;53.730;10.010;2023-08-07T15:32:58;100304.28;;;15.74;100.00
20444;BME280;10381;53.730;10.010;2023-08-07T15:36:58;100284.50;;;15.61;100.00
20444;BME280;10381;53.730;10.010;2023-08-07T15:40:58;100301.91;;;15.57;100.00
20444;BME280;10381;53.730;10.010;2023-08-07T15:44:59;100302.25;;;15.76;100.00
20444;BME280;10381;53.730;10.010;2023-08-07T15:48:59;100318.91;;;16.31;100.00
20444;BME280;10381;53.730;10.010;2023-08-07T15:53:00;100343.94;;;17.69;100.00
20444;BME280;10381;53.730;10.010;2023-08-07T15:57:01;100372.44;;;17.34;100.00
20444;BME280;10381;53.730;10.010;2023-08-07T16:01:01;100405.06;;;16.18;100.00
20444;BME280;10381;53.730;10.010;2023-08-07T16:05:02;100439.34;;;15.92;100.00
20444;BME280;10381;53.730;10.010;2023-08-07T16:09:02;100460.03;;;15.98;100.00
20444;BME280;10381;53.730;10.010;2023-08-07T16:13:02;100601.38;;;17.00;100.00
20444;BME280;10381;53.730;10.010;2023-08-07T16:17:03;100521.00;;;17.23;100.00
20444;BME280;10381;53.730;10.010;2023-08-07T16:21:03;100512.69;;;16.12;100.00
20444;BME280;10381;53.730;10.010;2023-08-07T16:25:04;100518.91;;;16.66;100.00
20444;BME280;10381;53.730;10.010;2023-08-07T16:29:04;100517.59;;;16.99;100.00
20444;BME280;10381;53.730;10.010;2023-08-07T16:33:05;100490.94;;;16.15;100.00
20444;BME280;10381;53.730;10.010;2023-08-07T16:37:05;100522.16;;;15.92;100.00
20444;BME280;10381;53.730;10.010;2023-08-07T16:41:05;100566.13;;;17.41;100.00
20444;BME280;10381;53.730;10.010;2023-08-07T16:45:06;100560.25;;;16.17;100.00
20444;BME280;10381;53.730;10.010;2023-08-07T16:49:06;100571.63;;;16.19;100.00
20444;BME280;10381;53.730;10.010;2023-08-07T16:53:06;100576.81;;;16.58;100.00
20444;BME280;10381;53.730;10.010;2023-08-07T16:57:07;100549.25;;;17.40;100.00
20444;BME280;10381;53.730;10.010;2023-08-07T17:01:08;100524.16;;;17.93;100.00
20444;BME280;10381;53.730;10.010;2023-08-07T17:05:08;100485.19;;;17.75;100.00
20444;BME280;10381;53.730;10.010;2023-08-07T17:09:08;100514.44;;;17.92;100.00
20444;BME280;10381;53.730;10.010;2023-08-07T17:13:09;100500.31;;;17.32;100.00
20444;BME280;10381;53.730;10.010;2023-08-07T17:17:09;100496.34;;;17.42;100.00
20444;BME280;10381;53.730;10.010;2023-08-07T17:21:11;100518.94;;;16.43;100.00
20444;BME280;10381;53.730;10.010;2023-08-07T17:25:11;100528.19;;;15.54;100.00
20444;BME280;10381;53.730;10.010;2023-08-07T17:29:11;100550.84;;;15.27;100.00
20444;BME280;10381;53.730;10.010;2023-08-07T17:33:12;100582.63;;;14.73;100.00
20444;BME280;10381;53.730;10.010;2023-08-07T17:37:12;100476.81;;;13.83;100.00
20444;BME280;10381;53.730;10.010;2023-08-07T17:41:14;100402.88;;;14.35;100.00
20444;BME280;10381;53.730;10.010;2023-08-07T17:45:14;100379.66;;;14.52;100.00
20444;BME280;10381;53.730;10.010;2023-08-07T17:49:15;100363.25;;;14.32;100.00
20444;BME280;10381;53.730;10.010;2023-08-07T17:53:15;100351.56;;;14.41;100.00
20444;BME280;10381;53.730;10.010;2023-08-07T17:57:16;100351.19;;;14.60;100.00
20444;BME280;10381;53.730;10.010;2023-08-07T18:01:17;100344.47;;;14.73;100.00
20444;BME280;10381;53.730;10.010;2023-08-07T18:05:18;100350.28;;;14.76;100.00
20444;BME280;10381;53.730;10.010;2023-08-07T18:09:18;100350.34;;;14.60;100.00
20444;BME280;10381;53.730;10.010;2023-08-07T18:13:19;100356.50;;;14.52;100.00
20444;BME280;10381;53.730;10.010;2023-08-07T18:17:19;100333.81;;;14.17;100.00
20444;BME280;10381;53.730;10.010;2023-08-07T18:21:19;100326.81;;;13.99;100.00
20444;BME280;10381;53.730;10.010;2023-08-07T18:25:20;100306.06;;;13.87;100.00
20444;BME280;10381;53.730;10.010;2023-08-07T18:29:20;100299.56;;;13.89;100.00
20444;BME280;10381;53.730;10.010;2023-08-07T18:33:21;100305.38;;;13.93;100.00
20444;BME280;10381;53.730;10.010;2023-08-07T18:37:21;100294.56;;;13.20;100.00
20444;BME280;10381;53.730;10.010;2023-08-07T18:41:21;100271.69;;;12.69;100.00
20444;BME280;10381;53.730;10.010;2023-08-07T18:45:23;100279.47;;;12.62;100.00
20444;BME280;10381;53.730;10.010;2023-08-07T18:49:23;100267.81;;;12.47;100.00
20444;BME280;10381;53.730;10.010;2023-08-07T18:53:23;100260.78;;;12.38;100.00
20444;BME280;10381;53.730;10.010;2023-08-07T18:57:24;100288.84;;;12.32;100.00
20444;BME280;10381;53.730;10.010;2023-08-07T19:01:24;100308.72;;;12.28;100.00
20444;BME280;10381;53.730;10.010;2023-08-07T19:05:24;100329.66;;;12.31;100.00
20444;BME280;10381;53.730;10.010;2023-08-07T19:09:25;100351.06;;;12.29;100.00
20444;BME280;10381;53.730;10.010;2023-08-07T19:13:25;100358.50;;;12.26;100.00
20444;BME280;10381;53.730;10.010;2023-08-07T19:17:26;100389.56;;;12.25;100.00
20444;BME280;10381;53.730;10.010;2023-08-07T19:21:28;100395.19;;;12.22;100.00
20444;BME280;10381;53.730;10.010;2023-08-07T19:25:29;99962.31;;;12.22;100.00
20444;BME280;10381;53.730;10.010;2023-08-07T19:29:29;99949.03;;;12.22;100.00
20444;BME280;10381;53.730;10.010;2023-08-07T19:33:29;99864.03;;;12.22;100.00
20444;BME280;10381;53.730;10.010;2023-08-07T19:37:30;99849.59;;;12.25;100.00
20444;BME280;10381;53.730;10.010;2023-08-07T19:41:31;99833.53;;;12.10;100.00
20444;BME280;10381;53.730;10.010;2023-08-07T19:45:32;99816.63;;;12.03;100.00
20444;BME280;10381;53.730;10.010;2023-08-07T19:49:33;99809.97;;;12.07;100.00
20444;BME280;10381;53.730;10.010;2023-08-07T19:53:33;99808.66;;;12.03;100.00
20444;BME280;10381;53.730;10.010;2023-08-07T19:57:33;99803.31;;;12.11;100.00
20444;BME280;10381;53.730;10.010;2023-08-07T20:01:34;99795.28;;;12.44;100.00
20444;BME280;10381;53.730;10.010;2023-08-07T20:05:34;99780.91;;;12.61;100.00
20444;BME280;10381;53.730;10.010;2023-08-07T20:09:35;99778.38;;;12.68;100.00
20444;BME280;10381;53.730;10.010;2023-08-07T20:13:38;99814.31;;;12.87;100.00
20444;BME280;10381;53.730;10.010;2023-08-07T20:17:38;99846.19;;;12.95;100.00
20444;BME280;10381;53.730;10.010;2023-08-07T20:21:39;99921.50;;;12.87;100.00
20444;BME280;10381;53.730;10.010;2023-08-07T20:25:40;99947.19;;;13.03;100.00
20444;BME280;10381;53.730;10.010;2023-08-07T20:29:40;99967.06;;;13.15;100.00
20444;BME280;10381;53.730;10.010;2023-08-07T20:33:40;99992.69;;;13.08;100.00
20444;BME280;10381;53.730;10.010;2023-08-07T20:37:41;99996.06;;;13.02;100.00